Flight Track Log - Related Links

Times and Time Zones

All times are in EDT time to prevent confusion due to time zone crossing. See the JAI561 flight status page for this flight to view local times or setup timezone preferences in your user account.


Time Position Orientation Groundspeed Altitude Reporting Facility
EDT Latitude Longitude Course Direction KTS MPH feet Rate Location/Type
Sun 04:07:45 PM 25.3380 55.5010 302° West 188 216 700  Level FlightAware ADS-B
Sun 04:08:07 PM 25.3480 55.4840 303° West 188 216 1,500 1,714 Climbing FlightAware ADS-B
Sun 04:08:20 PM 25.3540 55.4730 301° West 201 231 1,700 1,029 Climbing FlightAware ADS-B
Sun 04:08:42 PM 25.3660 55.4530 304° West 222 255 2,100 973 Climbing FlightAware ADS-B
Sun 04:08:57 PM 25.3750 55.4380 304° West 224 258 2,300 1,024 Climbing FlightAware ADS-B
Sun 04:09:23 PM 25.3900 55.4120 303° West 229 264 2,800 878 Climbing FlightAware ADS-B
Sun 04:09:38 PM 25.3990 55.3990 307° West 233 268 2,900 571 Climbing FlightAware ADS-B
Sun 04:09:44 PM 25.4050 55.3940 323° Northwest 233 268 3,000 1,200 Climbing FlightAware ADS-B
Sun 04:09:53 PM 25.4140 55.3900 338° Northwest 236 272 3,200 750 Climbing FlightAware ADS-B
Sun 04:10:00 PM 25.4210 55.3900 360° North 237 273 3,200  Level FlightAware ADS-B
Sun 04:10:21 PM 25.4430 55.3990 20° North 245 282 3,200  Level FlightAware ADS-B
Sun 04:10:26 PM 25.4460 55.4030 50° Northeast 246 283 3,200  Level FlightAware ADS-B
Sun 04:10:32 PM 25.4500 55.4090 54° Northeast 248 285 3,200  Level FlightAware ADS-B
Sun 04:10:41 PM 25.4540 55.4200 68° East 250 288 3,200  Level FlightAware ADS-B
Sun 04:10:45 PM 25.4540 55.4260 90° East 251 289 3,200 1,448 Level FlightAware ADS-B
Sun 04:11:10 PM 25.4440 55.4540 112° Southeast 247 284 3,900 2,108 Climbing FlightAware ADS-B
Sun 04:11:22 PM 25.4370 55.4680 119° Southeast 246 283 4,500 2,192 Climbing FlightAware ADS-B
Sun 04:12:02 PM 25.4170 55.5050 121° Southeast 249 287 5,800 2,190 Climbing FlightAware ADS-B
Sun 04:12:25 PM 25.4000 55.5370 120° Southeast 252 290 6,800 1,814 Climbing FlightAware ADS-B
Sun 04:12:45 PM 25.3880 55.5590 121° Southeast 250 288 7,100 1,024 Climbing FlightAware ADS-B
Sun 04:13:06 PM 25.3750 55.5830 121° Southeast 265 305 7,500 1,600 Climbing FlightAware ADS-B
Sun 04:13:30 PM 25.3590 55.6120 121° Southeast 279 321 8,300 2,000 Climbing FlightAware ADS-B
Sun 04:13:51 PM 25.3460 55.6400 117° Southeast 287 330 9,000 2,250 Climbing FlightAware ADS-B
Sun 04:14:02 PM 25.3390 55.6540 119° Southeast 287 330 9,500 2,087 Climbing FlightAware ADS-B
Sun 04:14:37 PM 25.3180 55.6990 117° Southeast 301 346 10,600 1,417 Climbing FlightAware ADS-B
Sun 04:15:14 PM 25.2920 55.7540 118° Southeast 338 389 11,200 1,080 Climbing FlightAware ADS-B
Sun 04:15:27 PM 25.2780 55.7700 134° Southeast 343 395 11,500 1,500 Climbing FlightAware ADS-B
Sun 04:15:34 PM 25.2690 55.7770 145° Southeast 343 395 11,700 1,600 Climbing FlightAware ADS-B
Sun 04:15:42 PM 25.2560 55.7830 157° South 343 395 11,900 1,579 Climbing FlightAware ADS-B
Sun 04:15:53 PM 25.2390 55.7850 174° South 347 399 12,200 1,235 Climbing FlightAware ADS-B
Sun 04:16:16 PM 25.2030 55.7740 195° South 365 420 12,600 724 Climbing FlightAware ADS-B
Sun 04:16:51 PM 25.1520 55.7410 210° Southwest 364 419 12,900 1,114 Climbing FlightAware ADS-B
Sun 04:17:26 PM 25.1010 55.7080 210° Southwest 351 404 13,900 1,895 Climbing FlightAware ADS-B
Sun 04:17:48 PM 25.0690 55.6960 199° South 344 396 14,700 1,448 Climbing FlightAware ADS-B
Sun 04:18:24 PM 25.0120 55.7080 169° South 358 412 15,300 894 Climbing FlightAware ADS-B
Sun 04:18:35 PM 24.9970 55.7200 144° Southeast 364 419 15,400 1,091 Climbing FlightAware ADS-B
Sun 04:19:08 PM 24.9540 55.7630 138° Southeast 380 437 16,100 1,250 Climbing FlightAware ADS-B
Sun 04:19:47 PM 24.9040 55.8140 137° Southeast 392 451 16,900 711 Climbing FlightAware ADS-B
Sun 04:20:24 PM 24.8530 55.8650 138° Southeast 394 453 17,000 86 Climbing FlightAware ADS-B
Sun 04:20:57 PM 24.8090 55.9100 137° Southeast 394 453 17,000 87 Level FlightAware ADS-B
Sun 04:21:33 PM 24.7630 55.9570 137° Southeast 394 453 17,100 930 Climbing FlightAware ADS-B
Sun 04:22:08 PM 24.7160 56.0060 137° Southeast 397 457 18,100 1,579 Climbing FlightAware ADS-B
Sun 04:22:49 PM 24.6600 56.0640 137° Southeast 403 464 19,100 1,538 Climbing FlightAware ADS-B
Sun 04:23:26 PM 24.6080 56.1170 137° Southeast 410 472 20,100 1,565 Climbing FlightAware ADS-B
Sun 04:23:58 PM 24.5650 56.1630 136° Southeast 412 474 20,900 1,455 Climbing FlightAware ADS-B
Sun 04:24:32 PM 24.5220 56.2180 131° Southeast 416 479 21,700 1,308 Climbing FlightAware ADS-B
Sun 04:25:16 PM 24.4710 56.2830 131° Southeast 422 486 22,600 1,360 Climbing FlightAware ADS-B
Sun 04:25:47 PM 24.4250 56.3410 131° Southeast 426 490 23,400 1,391 Climbing FlightAware ADS-B
Sun 04:26:25 PM 24.3770 56.4010 131° Southeast 431 496 24,200 1,120 Climbing FlightAware ADS-B
Sun 04:27:02 PM 24.3280 56.4640 130° Southeast 439 505 24,800 904 Climbing FlightAware ADS-B
Sun 04:27:38 PM 24.2820 56.5260 129° Southeast 445 512 25,300 957 Climbing FlightAware ADS-B
Sun 04:28:11 PM 24.2430 56.5850 126° Southeast 448 516 25,900 1,091 Climbing FlightAware ADS-B
Sun 04:28:44 PM 24.2010 56.6480 126° Southeast 452 520 26,500 1,000 Climbing FlightAware ADS-B
Sun 04:29:17 PM 24.1600 56.7100 126° Southeast 456 525 27,000 845 Climbing FlightAware ADS-B
Sun 04:29:55 PM 24.1140 56.7800 126° Southeast 462 532 27,500 917 Climbing FlightAware ADS-B
Sun 04:30:29 PM 24.0700 56.8450 127° Southeast 465 535 28,100 1,183 Climbing FlightAware ADS-B
Sun 04:31:06 PM 24.0230 56.9160 126° Southeast 461 531 28,900 1,333 Climbing FlightAware ADS-B
Sun 04:31:41 PM 23.9800 56.9800 126° Southeast 456 525 29,700 1,352 Climbing FlightAware ADS-B
Sun 04:32:17 PM 23.9360 57.0450 127° Southeast 452 520 30,500 929 Climbing FlightAware ADS-B
Sun 04:33:05 PM 23.8810 57.1270 126° Southeast 449 517 31,000 366 Climbing FlightAware ADS-B
Sun 04:33:39 PM 23.8460 57.1800 126° Southeast 449 517 31,000  Level FlightAware ADS-B
Sun 04:34:16 PM 23.8080 57.2380 126° Southeast 449 517 31,000 750 Level FlightAware ADS-B
Sun 04:34:51 PM 23.7480 57.3250 127° Southeast 453 521 31,900 1,286 Climbing FlightAware ADS-B
Sun 04:35:26 PM 23.7000 57.3940 127° Southeast 452 520 32,500 575 Climbing FlightAware ADS-B
Sun 04:36:04 PM 23.6620 57.4490 127° Southeast 452 520 32,600 80 Climbing FlightAware ADS-B
Sun 04:36:41 PM 23.6230 57.5060 127° Southeast 452 520 32,600  Level FlightAware ADS-B
Sun 04:37:18 PM 23.5830 57.5630 127° Southeast 452 520 32,600  Level FlightAware ADS-B
Sun 04:37:54 PM 23.5440 57.6190 127° Southeast 452 520 32,600  Level FlightAware ADS-B
Sun 04:38:31 PM 23.5050 57.6760 127° Southeast 452 520 32,600  Level FlightAware ADS-B
Sun 04:39:07 PM 23.4660 57.7320 127° Southeast 452 520 32,600  Level FlightAware ADS-B
Sun 04:39:41 PM 23.4300 57.7850 127° Southeast 452 520 32,600  Level FlightAware ADS-B
Sun 04:40:18 PM 23.3900 57.8420 127° Southeast 452 520 32,600 1,920 Level FlightAware ADS-B
Sun 04:40:56 PM 23.2740 57.9760 133° Southeast 461 531 35,000 16 Climbing FlightAware ADS-B
Sun 04:43:00 PM 23.1502 58.1781 124° Southeast  Level Estimated
Sun 04:44:00 PM 23.0902 58.2758 124° Southeast  Level Estimated
Sun 04:45:00 PM 23.0301 58.3734 124° Southeast  Level Estimated
Sun 04:46:00 PM 22.9700 58.4709 124° Southeast  Level Estimated
Sun 04:47:00 PM 22.9098 58.5683 124° Southeast  Level Estimated
Sun 04:48:00 PM 22.8495 58.6656 124° Southeast  Level Estimated
Sun 04:49:00 PM 22.7892 58.7628 124° Southeast  Level Estimated
Sun 04:50:00 PM 22.7288 58.8600 124° Southeast  Level Estimated
Sun 04:51:00 PM 22.6684 58.9570 124° Southeast  Level Estimated
Sun 04:52:00 PM 22.6079 59.0540 124° Southeast  Level Estimated
Sun 04:53:00 PM 22.5474 59.1509 124° Southeast  Level Estimated
Sun 04:54:00 PM 22.4868 59.2477 124° Southeast  Level Estimated
Sun 04:55:00 PM 22.4261 59.3444 124° Southeast  Level Estimated
Sun 04:56:00 PM 22.3654 59.4411 124° Southeast  Level Estimated
Sun 04:57:00 PM 22.3046 59.5376 124° Southeast  Level Estimated
Sun 04:58:00 PM 22.2438 59.6341 124° Southeast  Level Estimated
Sun 04:59:00 PM 22.1829 59.7305 124° Southeast  Level Estimated
Sun 05:00:00 PM 22.1220 59.8268 124° Southeast  Level Estimated
Sun 05:01:00 PM 22.0610 59.9230 124° Southeast  Level Estimated
Sun 05:02:00 PM 21.9999 60.0191 124° Southeast  Level Estimated
Sun 05:03:00 PM 21.9388 60.1152 124° Southeast  Level Estimated
Sun 05:04:00 PM 21.8776 60.2112 124° Southeast  Level Estimated
Sun 05:05:00 PM 21.8164 60.3071 125° Southeast  Level Estimated
Sun 05:06:00 PM 21.7551 60.4029 125° Southeast  Level Estimated
Sun 05:07:00 PM 21.6938 60.4986 125° Southeast  Level Estimated
Sun 05:08:00 PM 21.6324 60.5942 125° Southeast  Level Estimated
Sun 05:09:00 PM 21.5710 60.6898 125° Southeast  Level Estimated
Sun 05:10:00 PM 21.5095 60.7853 125° Southeast  Level Estimated
Sun 05:11:00 PM 21.4479 60.8807 125° Southeast  Level Estimated
Sun 05:12:00 PM 21.3863 60.9760 125° Southeast  Level Estimated
Sun 05:13:00 PM 21.3247 61.0712 125° Southeast  Level Estimated
Sun 05:14:00 PM 21.2630 61.1664 125° Southeast  Level Estimated
Sun 05:15:00 PM 21.2012 61.2615 125° Southeast  Level Estimated
Sun 05:16:00 PM 21.1394 61.3565 125° Southeast  Level Estimated
Sun 05:17:00 PM 21.0775 61.4514 125° Southeast  Level Estimated
Sun 05:18:00 PM 21.0156 61.5462 125° Southeast  Level Estimated
Sun 05:19:00 PM 20.9536 61.6410 125° Southeast  Level Estimated
Sun 05:20:00 PM 20.8916 61.7357 125° Southeast  Level Estimated
Sun 05:21:00 PM 20.8295 61.8303 125° Southeast  Level Estimated
Sun 05:22:00 PM 20.7673 61.9248 125° Southeast  Level Estimated
Sun 05:23:00 PM 20.7052 62.0193 125° Southeast  Level Estimated
Sun 05:24:00 PM 20.6429 62.1136 125° Southeast  Level Estimated
Sun 05:25:00 PM 20.5806 62.2079 125° Southeast  Level Estimated
Sun 05:26:00 PM 20.5183 62.3022 125° Southeast  Level Estimated
Sun 05:27:00 PM 20.4559 62.3963 125° Southeast  Level Estimated
Sun 05:28:00 PM 20.3934 62.4904 125° Southeast  Level Estimated
Sun 05:29:00 PM 20.3310 62.5844 125° Southeast  Level Estimated
Sun 05:30:00 PM 20.2684 62.6783 125° Southeast  Level Estimated
Sun 05:31:00 PM 20.2058 62.7721 125° Southeast  Level Estimated
Sun 05:32:00 PM 20.1432 62.8659 125° Southeast  Level Estimated
Sun 05:33:00 PM 20.0805 62.9595 125° Southeast  Level Estimated
Sun 05:34:00 PM 20.0178 63.0532 125° Southeast  Level Estimated
Sun 05:35:00 PM 19.9550 63.1467 126° Southeast  Level Estimated
Sun 05:36:00 PM 19.8921 63.2402 126° Southeast  Level Estimated
Sun 05:37:00 PM 19.8292 63.3335 126° Southeast  Level Estimated
Sun 05:38:00 PM 19.7663 63.4269 126° Southeast  Level Estimated
Sun 05:39:00 PM 19.7033 63.5201 126° Southeast  Level Estimated
Sun 05:40:00 PM 19.6403 63.6133 126° Southeast  Level Estimated
Sun 05:41:00 PM 19.5772 63.7064 126° Southeast  Level Estimated
Sun 05:42:00 PM 19.5141 63.7994 126° Southeast  Level Estimated
Sun 05:43:00 PM 19.4509 63.8923 126° Southeast  Level Estimated
Sun 05:44:00 PM 19.3877 63.9852 126° Southeast  Level Estimated
Sun 05:45:00 PM 19.3244 64.0780 126° Southeast  Level Estimated
Sun 05:46:00 PM 19.2611 64.1707 126° Southeast  Level Estimated
Sun 05:47:00 PM 19.1977 64.2634 126° Southeast  Level Estimated
Sun 05:48:00 PM 19.1343 64.3560 126° Southeast  Level Estimated
Sun 05:49:00 PM 19.0709 64.4485 126° Southeast  Level Estimated
Sun 05:50:00 PM 19.0074 64.5410 126° Southeast  Level Estimated
Sun 05:51:00 PM 18.9438 64.6333 126° Southeast  Level Estimated
Sun 05:52:00 PM 18.8802 64.7256 126° Southeast  Level Estimated
Sun 05:53:00 PM 18.8166 64.8179 126° Southeast  Level Estimated
Sun 05:54:00 PM 18.7529 64.9101 126° Southeast  Level Estimated
Sun 05:55:00 PM 18.6892 65.0022 126° Southeast  Level Estimated
Sun 05:56:00 PM 18.6254 65.0942 126° Southeast  Level Estimated
Sun 05:57:00 PM 18.5616 65.1861 126° Southeast  Level Estimated
Sun 05:58:00 PM 18.4977 65.2780 126° Southeast  Level Estimated
Sun 05:59:00 PM 18.4338 65.3699 126° Southeast  Level Estimated
Sun 06:00:00 PM 18.3699 65.4616 126° Southeast  Level Estimated
Sun 06:01:00 PM 18.3059 65.5533 126° Southeast  Level Estimated
Sun 06:02:00 PM 18.2418 65.6449 126° Southeast  Level Estimated
Sun 06:03:00 PM 18.1777 65.7365 126° Southeast  Level Estimated
Sun 06:04:00 PM 18.1136 65.8279 126° Southeast  Level Estimated
Sun 06:05:00 PM 18.0494 65.9194 126° Southeast  Level Estimated
Sun 06:06:00 PM 17.9852 66.0107 126° Southeast  Level Estimated
Sun 06:07:00 PM 17.9210 66.1020 126° Southeast  Level Estimated
Sun 06:08:00 PM 17.8567 66.1932 127° Southeast  Level Estimated
Sun 06:09:00 PM 17.7923 66.2844 127° Southeast  Level Estimated
Sun 06:10:00 PM 17.7279 66.3755 127° Southeast  Level Estimated
Sun 06:11:00 PM 17.6635 66.4665 127° Southeast  Level Estimated
Sun 06:12:00 PM 17.5991 66.5574 127° Southeast  Level Estimated
Sun 06:13:00 PM 17.5345 66.6483 127° Southeast  Level Estimated
Sun 06:14:00 PM 17.4700 66.7391 127° Southeast  Level Estimated
Sun 06:15:00 PM 17.4054 66.8299 127° Southeast  Level Estimated
Sun 06:16:00 PM 17.3408 66.9206 127° Southeast  Level Estimated
Sun 06:17:00 PM 17.2761 67.0112 127° Southeast  Level Estimated
Sun 06:18:00 PM 17.2114 67.1018 127° Southeast  Level Estimated
Sun 06:19:00 PM 17.1467 67.1923 127° Southeast  Level Estimated
Sun 06:20:00 PM 17.0819 67.2827 127° Southeast  Level Estimated
Sun 06:21:00 PM 17.0170 67.3731 127° Southeast  Level Estimated
Sun 06:22:00 PM 16.9522 67.4634 127° Southeast  Level Estimated
Sun 06:23:00 PM 16.8873 67.5537 127° Southeast  Level Estimated
Sun 06:24:00 PM 16.8223 67.6439 127° Southeast  Level Estimated
Sun 06:25:00 PM 16.7573 67.7340 127° Southeast  Level Estimated
Sun 06:26:00 PM 16.6923 67.8241 127° Southeast  Level Estimated
Sun 06:27:00 PM 16.6272 67.9141 127° Southeast  Level Estimated
Sun 06:28:00 PM 16.5621 68.0040 127° Southeast  Level Estimated
Sun 06:29:00 PM 16.4970 68.0939 127° Southeast  Level Estimated
Sun 06:30:00 PM 16.4318 68.1837 127° Southeast  Level Estimated
Sun 06:31:00 PM 16.3665 68.2735 127° Southeast  Level Estimated
Sun 06:32:00 PM 16.3013 68.3632 127° Southeast  Level Estimated
Sun 06:33:00 PM 16.2360 68.4529 127° Southeast  Level Estimated
Sun 06:34:00 PM 16.1706 68.5424 127° Southeast  Level Estimated
Sun 06:35:00 PM 16.1053 68.6320 127° Southeast  Level Estimated
Sun 06:36:00 PM 16.0399 68.7214 127° Southeast  Level Estimated
Sun 06:37:00 PM 15.9744 68.8109 127° Southeast  Level Estimated
Sun 06:38:00 PM 15.9089 68.9002 127° Southeast  Level Estimated
Sun 06:39:00 PM 15.8434 68.9895 127° Southeast  Level Estimated
Sun 06:40:00 PM 15.7778 69.0787 127° Southeast  Level Estimated
Sun 06:41:00 PM 15.7122 69.1679 127° Southeast  Level Estimated
Sun 06:42:00 PM 15.6466 69.2570 127° Southeast  Level Estimated
Sun 06:43:00 PM 15.5809 69.3461 127° Southeast  Level Estimated
Sun 06:44:00 PM 15.5152 69.4351 127° Southeast  Level Estimated
Sun 06:45:00 PM 15.4495 69.5240 127° Southeast  Level Estimated
Sun 06:46:00 PM 15.3837 69.6129 127° Southeast  Level Estimated
Sun 06:47:00 PM 15.3179 69.7018 128° Southeast  Level Estimated
Sun 06:48:00 PM 15.2521 69.7905 128° Southeast  Level Estimated
Sun 06:49:00 PM 15.1862 69.8793 128° Southeast  Level Estimated
Sun 06:50:00 PM 15.1203 69.9679 128° Southeast  Level Estimated
Sun 06:51:00 PM 15.0543 70.0565 128° Southeast  Level Estimated
Sun 06:52:00 PM 14.9884 70.1451 128° Southeast  Level Estimated
Sun 06:53:00 PM 14.9223 70.2336 128° Southeast  Level Estimated
Sun 06:54:00 PM 14.8563 70.3221 128° Southeast  Level Estimated
Sun 06:55:00 PM 14.7902 70.4105 128° Southeast  Level Estimated
Sun 06:56:00 PM 14.7241 70.4988 128° Southeast  Level Estimated
Sun 06:57:00 PM 14.6579 70.5871 128° Southeast  Level Estimated
Sun 06:58:00 PM 14.5917 70.6753 128° Southeast  Level Estimated
Sun 06:59:00 PM 14.5255 70.7635 128° Southeast  Level Estimated
Sun 07:00:00 PM 14.4593 70.8516 128° Southeast  Level Estimated
Sun 07:01:00 PM 14.3930 70.9397 128° Southeast  Level Estimated
Sun 07:02:00 PM 14.3267 71.0277 128° Southeast  Level Estimated
Sun 07:03:00 PM 14.2603 71.1157 128° Southeast  Level Estimated
Sun 07:04:00 PM 14.1939 71.2036 128° Southeast  Level Estimated
Sun 07:05:00 PM 14.1275 71.2915 128° Southeast  Level Estimated
Sun 07:06:00 PM 14.0611 71.3793 128° Southeast  Level Estimated
Sun 07:07:00 PM 13.9946 71.4671 128° Southeast  Level Estimated
Sun 07:07:36 PM 12.2340 73.4670 128° Southeast 440 506 35,000  Level FlightAware ADS-B
Sun 07:08:00 PM 13.9281 71.5548 128° Southeast  Level Estimated
Sun 07:08:14 PM 12.1780 73.5200 137° Southeast 439 505 35,000  Level FlightAware ADS-B
Sun 07:08:48 PM 12.1260 73.5690 137° Southeast 439 505 35,000  Level FlightAware ADS-B
Sun 07:09:20 PM 12.0790 73.6130 138° Southeast 440 506 35,000  Level FlightAware ADS-B
Sun 07:09:58 PM 12.0230 73.6650 138° Southeast 439 505 35,000  Level FlightAware ADS-B
Sun 07:10:34 PM 11.9690 73.7160 137° Southeast 439 505 35,000  Level FlightAware ADS-B
Sun 07:11:10 PM 11.9140 73.7660 138° Southeast 440 506 35,000  Level FlightAware ADS-B
Sun 07:11:51 PM 11.8530 73.8220 138° Southeast 439 505 35,000  Level FlightAware ADS-B
Sun 07:12:24 PM 11.8020 73.8680 139° Southeast 439 505 35,000  Level FlightAware ADS-B
Sun 07:13:02 PM 11.7410 73.9200 140° Southeast 438 504 35,000  Level FlightAware ADS-B
Sun 07:13:34 PM 11.6900 73.9620 141° Southeast 433 498 35,000  Level FlightAware ADS-B
Sun 07:14:11 PM 11.6350 74.0090 140° Southeast 428 493 35,000  Level FlightAware ADS-B
Sun 07:14:46 PM 11.5840 74.0560 138° Southeast 424 488 35,000  Level FlightAware ADS-B
Sun 07:15:22 PM 11.5390 74.1120 129° Southeast 421 484 35,000  Level FlightAware ADS-B
Sun 07:15:54 PM 11.5080 74.1670 120° Southeast 419 482 35,000  Level FlightAware ADS-B
Sun 07:16:32 PM 11.4750 74.2340 117° Southeast 419 482 35,000  Level FlightAware ADS-B
Sun 07:17:08 PM 11.4480 74.3010 112° Southeast 419 482 35,000  Level FlightAware ADS-B
Sun 07:17:38 PM 11.4260 74.3540 113° Southeast 419 482 35,000  Level FlightAware ADS-B
Sun 07:18:16 PM 11.3970 74.4250 113° Southeast 422 486 35,000  Level FlightAware ADS-B
Sun 07:18:52 PM 11.3690 74.4910 113° Southeast 424 488 35,000  Level FlightAware ADS-B
Sun 07:19:28 PM 11.3420 74.5560 113° Southeast 425 489 35,000  Level FlightAware ADS-B
Sun 07:20:00 PM 11.3140 74.6140 116° Southeast 426 490 35,000  Level FlightAware ADS-B
Sun 07:20:37 PM 11.2820 74.6800 116° Southeast 427 491 35,000  Level FlightAware ADS-B
Sun 07:21:12 PM 11.2520 74.7430 116° Southeast 428 493 35,000  Level FlightAware ADS-B
Sun 07:21:44 PM 11.2240 74.8030 115° Southeast 429 494 35,000  Level FlightAware ADS-B
Sun 07:22:20 PM 11.1930 74.8690 116° Southeast 429 494 35,000 -973 Level FlightAware ADS-B
Sun 07:22:58 PM 11.1600 74.9370 116° Southeast 425 489 33,800 -1,973 Descending FlightAware ADS-B
Sun 07:23:33 PM 11.1300 74.9980 117° Southeast 422 486 32,600 -2,000 Descending FlightAware ADS-B
Sun 07:24:04 PM 11.1030 75.0530 117° Southeast 415 478 31,600 -1,791 Descending FlightAware ADS-B
Sun 07:24:40 PM 11.0730 75.1160 116° Southeast 406 467 30,600 -1,714 Descending FlightAware ADS-B
Sun 07:25:14 PM 11.0430 75.1720 119° Southeast 396 456 29,600 -1,714 Descending FlightAware ADS-B
Sun 07:25:50 PM 11.0090 75.2300 121° Southeast 389 448 28,600 -1,667 Descending FlightAware ADS-B
Sun 07:26:26 PM 10.9770 75.2840 121° Southeast 383 441 27,600 -1,667 Descending FlightAware ADS-B
Sun 07:27:02 PM 10.9430 75.3400 122° Southeast 374 430 26,600 -1,583 Descending FlightAware ADS-B
Sun 07:27:38 PM 10.9120 75.3940 120° Southeast 364 419 25,700 -1,588 Descending FlightAware ADS-B
Sun 07:28:10 PM 10.8860 75.4410 119° Southeast 356 410 24,800 -1,701 Descending FlightAware ADS-B
Sun 07:28:45 PM 10.8590 75.4910 119° Southeast 352 405 23,800 -1,750 Descending FlightAware ADS-B
Sun 07:29:22 PM 10.8290 75.5440 120° Southeast 348 400 22,700 -1,726 Descending FlightAware ADS-B
Sun 07:29:58 PM 10.8010 75.5960 119° Southeast 342 394 21,700 -1,588 Descending FlightAware ADS-B
Sun 07:30:30 PM 10.7760 75.6420 119° Southeast 338 389 20,900 -1,500 Descending FlightAware ADS-B
Sun 07:31:06 PM 10.7500 75.6910 118° Southeast 330 380 20,000 -1,000 Descending FlightAware ADS-B
Sun 07:31:42 PM 10.7250 75.7390 118° Southeast 305 351 19,700 -500 Descending FlightAware ADS-B
Sun 07:32:18 PM 10.7020 75.7810 119° Southeast 286 329 19,400 -1,433 Descending FlightAware ADS-B
Sun 07:32:49 PM 10.6730 75.8130 133° Southeast 308 354 18,100 -2,382 Descending FlightAware ADS-B
Sun 07:33:26 PM 10.6340 75.8530 135° Southeast 329 379 16,700 -2,137 Descending FlightAware ADS-B
Sun 07:34:02 PM 10.5950 75.8940 134° Southeast 337 388 15,500 -1,816 Descending FlightAware ADS-B
Sun 07:34:42 PM 10.5510 75.9400 134° Southeast 333 383 14,400 -1,500 Descending FlightAware ADS-B
Sun 07:35:18 PM 10.5130 75.9800 134° Southeast 325 374 13,600 -769 Descending FlightAware ADS-B
Sun 07:36:00 PM 10.4760 76.0230 131° Southeast 319 367 13,400 -154 Descending FlightAware ADS-B
Sun 07:36:36 PM 10.4450 76.0570 133° Southeast 319 367 13,400  Level FlightAware ADS-B
Sun 07:37:12 PM 10.4150 76.0910 132° Southeast 319 367 13,400 -1,728 Level FlightAware ADS-B
Sun 07:39:00 PM 10.2883 76.2409 131° Southeast  Level Estimated
Sun 07:40:00 PM 10.2178 76.3242 131° Southeast  Level Estimated
Sun 07:40:39 PM 10.2150 76.3030 131° Southeast 255 293 6,400  Level FlightAware ADS-B
Sun 07:40:55 PM 10.2010 76.3170 135° Southeast 247 284 6,100 -818 Descending FlightAware ADS-B
Sun 07:41:23 PM 10.1850 76.3350 132° Southeast 241 277 5,800 -857 Descending FlightAware ADS-B
Sun 07:41:44 PM 10.1640 76.3570 134° Southeast 231 266 5,400 -878 Descending FlightAware ADS-B
Sun 07:42:04 PM 10.1520 76.3740 126° Southeast 219 252 5,200 -643 Descending FlightAware ADS-B
Sun 07:42:12 PM 10.1490 76.3820 111° Southeast 216 249 5,100 -857 Descending FlightAware ADS-B
Sun 07:42:32 PM 10.1460 76.4010 99° East 211 243 4,800 -789 Descending FlightAware ADS-B
Sun 07:42:50 PM 10.1440 76.4180 97° East 207 238 4,600 -267 Descending FlightAware ADS-B
Sun 07:43:17 PM 10.1410 76.4400 98° East 207 238 4,600 -203 Level FlightAware ADS-B
Sun 07:45:00 PM 10.1520 76.4019 286° West  Level Estimated
Sun 07:46:00 PM 10.1520 76.4019 315° West  Level Estimated
Sun 07:47:00 PM 10.1520 76.4019 315° West  Level Estimated
Sun 07:48:00 PM 10.1520 76.4019 315° West  Level Estimated
Sun 07:49:00 PM 10.1520 76.4019 315° West  Level Estimated
Sun 07:50:00 PM 10.1520 76.4019 315° West  Level Estimated
Sun 07:50:43 PM 10.1180 76.6060 315° West 201 231 3,000  Level FlightAware ADS-B
Sun 07:51:10 PM 10.1150 76.6280 98° East 201 231 3,000  Level FlightAware ADS-B
Sun 07:53:00 PM 10.1475 76.4295 279° West  Level Estimated
Sun 07:54:00 PM 10.1520 76.4019 279° West  Level Estimated
Sun 07:55:00 PM 10.1520 76.4019 315° West  Level Estimated
Sun 07:56:00 PM 10.1520 76.4019 315° West  Level Estimated
Sun 07:57:00 PM 10.1520 76.4019 315° West  Level Estimated

Login

Don't have an account? Register now (free) for customized features, flight alerts, and more!